Anderson, Texas
Current Conditions -  °F | °C
As of 8:17 AM on Sunday 21 Dec 2014 (Local Time) from KCLL Reporting Station
Haze Haze  
Wind Chill: 47°   Ceiling: 400
Heat Index: 49°   Visibility: 5mi
Dew Point: 48°   Wind: 5mph
Humidity: 97%   Direction: 130°SE
Pressure: 30.13"   Gusts: NA
Location:  30.49°N, 95.99°W
Report Text: KCLL 211417Z AUTO 13004KT 5SM BR BKN004 OVC008 09/09 A3013 RMK AO2 T00940089
Loading
Personal Weather Stations






























Interactive Weather Map New forecast layout! Learn more

10-Day Weather Forecast

Advertisements
Track Severe Weather on mobile